Time;durP1;ratioP1;P1;durP2;ratioP2;P2;SDS_P1;SDS_P2;PMS_P1;PMS_P2;Temp;Humidity;BMP_temperature;BMP_pressure;BME280_temperature;BME280_humidity;BME280_pressure;Samples;Min_cycle;Max_cycle;Signal;HPM_P1;HPM_P2
2023/03/06 00:02:11;;;;;;;10.20;7.73;;;;;;;;;;5071772;28;20205;-81
2023/03/06 00:04:37;;;;;;;11.60;8.57;;;;;;;;;;5078794;28;20711;-81
2023/03/06 00:07:06;;;;;;;12.40;8.70;;;;;;;;;;5091997;28;20240;-82
2023/03/06 00:09:32;;;;;;;8.57;7.60;;;;;;;;;;5058688;28;20679;-81
2023/03/06 00:11:59;;;;;;;11.00;7.73;;;;;;;;;;5072303;28;20209;-82
2023/03/06 00:14:26;;;;;;;11.40;8.57;;;;;;;;;;5085361;28;20209;-82
2023/03/06 00:16:54;;;;;;;11.40;8.70;;;;;;;;;;5085162;28;20204;-85
2023/03/06 00:19:21;;;;;;;12.37;8.30;;;;;;;;;;5071970;28;20266;-85
2023/03/06 00:21:48;;;;;;;8.73;7.57;;;;;;;;;;5071960;28;20215;-82
2023/03/06 00:24:16;;;;;;;8.53;7.03;;;;;;;;;;5071581;28;20194;-82
2023/03/06 00:26:43;;;;;;;8.03;7.23;;;;;;;;;;5084718;28;20228;-81
2023/03/06 00:29:09;;;;;;;8.77;7.37;;;;;;;;;;5071464;28;20231;-82
2023/03/06 00:31:36;;;;;;;7.37;6.50;;;;;;;;;;5086003;28;20204;-82
2023/03/06 00:34:04;;;;;;;9.57;7.53;;;;;;;;;;5091534;28;20662;-82
2023/03/06 00:36:30;;;;;;;9.10;7.97;;;;;;;;;;5076371;28;20201;-82
2023/03/06 00:38:57;;;;;;;8.50;7.13;;;;;;;;;;5071205;28;20561;-81
2023/03/06 00:41:25;;;;;;;9.03;7.97;;;;;;;;;;5072750;28;20205;-82
2023/03/06 00:43:52;;;;;;;10.50;8.33;;;;;;;;;;5091553;28;20204;-84
2023/03/06 00:46:19;;;;;;;13.90;9.30;;;;;;;;;;5077922;28;20651;-81
2023/03/06 00:48:46;;;;;;;9.90;8.30;;;;;;;;;;5091755;28;20200;-81
2023/03/06 00:51:12;;;;;;;12.70;9.63;;;;;;;;;;5074905;28;20217;-82
2023/03/06 00:53:39;;;;;;;10.63;7.93;;;;;;;;;;5071150;28;20215;-82
2023/03/06 00:56:07;;;;;;;7.07;6.40;;;;;;;;;;5084698;28;20213;-82
2023/03/06 00:58:36;;;;;;;8.70;6.47;;;;;;;;;;5070920;28;20201;-81
2023/03/06 01:01:03;;;;;;;8.87;7.93;;;;;;;;;;5071289;28;20291;-81
2023/03/06 01:03:30;;;;;;;8.30;6.83;;;;;;;;;;5081430;28;20213;-82
2023/03/06 01:05:56;;;;;;;12.40;9.80;;;;;;;;;;5077584;28;20200;-82
2023/03/06 01:08:23;;;;;;;18.33;13.03;;;;;;;;;;5091474;28;20224;-81
2023/03/06 01:10:50;;;;;;;16.30;10.23;;;;;;;;;;5073606;28;20212;-81
2023/03/06 01:13:20;;;;;;;12.73;9.00;;;;;;;;;;5071301;28;20209;-81
2023/03/06 01:15:49;;;;;;;11.30;9.40;;;;;;;;;;5075233;28;20192;-81
2023/03/06 01:18:16;;;;;;;21.97;13.30;;;;;;;;;;5079494;28;20200;-82
2023/03/06 01:20:43;;;;;;;17.77;10.93;;;;;;;;;;5089145;28;20196;-82
2023/03/06 01:23:09;;;;;;;16.37;10.10;;;;;;;;;;5079617;28;20209;-82
2023/03/06 01:25:36;;;;;;;17.20;11.00;;;;;;;;;;5075717;28;20212;-81
2023/03/06 01:28:03;;;;;;;15.40;10.40;;;;;;;;;;5073661;28;20221;-82
2023/03/06 01:30:30;;;;;;;13.07;8.60;;;;;;;;;;5089446;28;20572;-82
2023/03/06 01:32:58;;;;;;;9.67;7.77;;;;;;;;;;5078422;28;20209;-82
2023/03/06 01:35:24;;;;;;;10.33;7.03;;;;;;;;;;5070833;28;20676;-81
2023/03/06 01:37:51;;;;;;;8.47;7.53;;;;;;;;;;5070715;28;20200;-81
2023/03/06 01:40:18;;;;;;;7.97;7.17;;;;;;;;;;5070883;28;20193;-81
2023/03/06 01:42:45;;;;;;;14.57;8.23;;;;;;;;;;5083842;28;20200;-83
2023/03/06 01:45:45;;;;;;;10.47;8.33;;;;;;;;;;5064258;28;20219;-82
2023/03/06 01:48:13;;;;;;;8.23;6.93;;;;;;;;;;5054786;28;20229;-82
2023/03/06 01:50:40;;;;;;;13.13;7.93;;;;;;;;;;5082641;28;20212;-82
2023/03/06 01:53:07;;;;;;;10.23;7.50;;;;;;;;;;5085327;28;20266;-82
2023/03/06 01:55:35;;;;;;;9.90;7.43;;;;;;;;;;5083291;28;20211;-81
2023/03/06 01:58:05;;;;;;;8.30;6.90;;;;;;;;;;5090747;28;20200;-81
2023/03/06 02:00:31;;;;;;;8.43;7.03;;;;;;;;;;5090746;28;20207;-82
2023/03/06 02:03:01;;;;;;;8.20;6.63;;;;;;;;;;5070431;28;20736;-82
2023/03/06 02:05:29;;;;;;;11.57;7.27;;;;;;;;;;5084448;28;20570;-82
2023/03/06 02:07:56;;;;;;;8.47;6.57;;;;;;;;;;5090797;28;20771;-81
2023/03/06 02:10:23;;;;;;;9.87;7.03;;;;;;;;;;5092465;28;20200;-81
2023/03/06 02:12:51;;;;;;;12.23;7.77;;;;;;;;;;5073779;28;20205;-81
2023/03/06 02:15:20;;;;;;;7.83;6.87;;;;;;;;;;5073950;28;20209;-81
2023/03/06 02:17:48;;;;;;;12.27;8.20;;;;;;;;;;5081478;28;20757;-81
2023/03/06 02:20:19;;;;;;;10.23;7.23;;;;;;;;;;5093839;28;20265;-81
2023/03/06 02:22:51;;;;;;;9.93;6.67;;;;;;;;;;5084989;28;20205;-81
2023/03/06 02:25:29;;;;;;;9.67;8.03;;;;;;;;;;5087143;28;20209;-82
2023/03/06 02:27:56;;;;;;;8.37;7.50;;;;;;;;;;5073746;28;20225;-81
2023/03/06 02:30:25;;;;;;;11.47;8.30;;;;;;;;;;5091823;28;20200;-82
2023/03/06 02:32:51;;;;;;;10.13;8.23;;;;;;;;;;5081897;28;20220;-81
2023/03/06 02:35:20;;;;;;;7.67;6.93;;;;;;;;;;5078933;28;20200;-81
2023/03/06 02:37:47;;;;;;;8.80;7.00;;;;;;;;;;5081051;28;20687;-81
2023/03/06 02:40:14;;;;;;;7.57;6.77;;;;;;;;;;5087285;28;20209;-81
2023/03/06 02:42:47;;;;;;;9.60;7.20;;;;;;;;;;5073690;28;20262;-82
2023/03/06 02:45:15;;;;;;;7.40;6.60;;;;;;;;;;5059992;28;20684;-84
2023/03/06 02:47:42;;;;;;;7.83;6.93;;;;;;;;;;5073210;28;20235;-83
2023/03/06 02:50:10;;;;;;;11.13;8.07;;;;;;;;;;5060099;28;20729;-82
2023/03/06 02:52:36;;;;;;;8.83;7.00;;;;;;;;;;5087205;28;20261;-83
2023/03/06 02:55:04;;;;;;;8.20;7.33;;;;;;;;;;5081391;28;20196;-82
2023/03/06 02:57:31;;;;;;;17.17;9.70;;;;;;;;;;5078682;28;20212;-83
2023/03/06 02:59:59;;;;;;;18.20;12.83;;;;;;;;;;5081573;28;20208;-82
2023/03/06 03:02:25;;;;;;;14.90;11.77;;;;;;;;;;5077887;28;20263;-83
2023/03/06 03:04:52;;;;;;;14.40;11.00;;;;;;;;;;5072917;28;20784;-82
2023/03/06 03:07:19;;;;;;;10.67;8.30;;;;;;;;;;5072908;28;20248;-82
2023/03/06 03:09:46;;;;;;;13.57;10.00;;;;;;;;;;5072672;28;20745;-83
2023/03/06 03:12:12;;;;;;;9.03;7.77;;;;;;;;;;5087545;28;20700;-82
2023/03/06 03:14:39;;;;;;;13.47;8.67;;;;;;;;;;5093437;28;20208;-82
2023/03/06 03:17:07;;;;;;;12.70;8.53;;;;;;;;;;5092567;28;20299;-82
2023/03/06 03:19:35;;;;;;;9.50;7.53;;;;;;;;;;5083876;28;20692;-83
2023/03/06 03:22:01;;;;;;;11.73;8.57;;;;;;;;;;5073852;28;20637;-83
2023/03/06 03:24:28;;;;;;;9.67;8.43;;;;;;;;;;5083808;28;20207;-82
2023/03/06 03:26:55;;;;;;;11.10;8.13;;;;;;;;;;5072420;28;20218;-82
2023/03/06 03:29:22;;;;;;;9.13;7.83;;;;;;;;;;5072587;28;20205;-82
2023/03/06 03:31:48;;;;;;;7.47;6.70;;;;;;;;;;5086259;28;20270;-82
2023/03/06 03:34:17;;;;;;;9.13;7.37;;;;;;;;;;5082250;28;20269;-82
2023/03/06 03:36:44;;;;;;;9.23;7.00;;;;;;;;;;5075482;28;20295;-82
2023/03/06 03:39:11;;;;;;;13.20;6.87;;;;;;;;;;5082858;28;20763;-82
2023/03/06 03:41:38;;;;;;;9.50;6.93;;;;;;;;;;5075082;28;20288;-82
2023/03/06 03:44:04;;;;;;;6.53;5.83;;;;;;;;;;5082850;28;20204;-82
2023/03/06 03:46:31;;;;;;;8.90;7.00;;;;;;;;;;5078939;28;20747;-82
2023/03/06 03:48:58;;;;;;;8.03;6.93;;;;;;;;;;5092510;28;20293;-86
2023/03/06 03:51:26;;;;;;;12.10;7.10;;;;;;;;;;5074363;28;20591;-82
2023/03/06 03:53:55;;;;;;;8.73;7.00;;;;;;;;;;5071914;28;20258;-81
2023/03/06 03:56:22;;;;;;;10.70;7.63;;;;;;;;;;5072313;28;20212;-82
2023/03/06 03:58:49;;;;;;;11.13;6.90;;;;;;;;;;5072247;28;20224;-80
2023/03/06 04:01:16;;;;;;;9.57;7.20;;;;;;;;;;5071977;28;20212;-81
2023/03/06 04:03:43;;;;;;;10.97;8.43;;;;;;;;;;5072216;28;20209;-81
2023/03/06 04:06:09;;;;;;;7.77;7.00;;;;;;;;;;5071542;28;20209;-82
2023/03/06 04:08:37;;;;;;;15.57;8.37;;;;;;;;;;5070857;28;20278;-81
2023/03/06 04:11:04;;;;;;;10.23;7.70;;;;;;;;;;5086260;28;20196;-81
2023/03/06 04:13:31;;;;;;;10.47;7.13;;;;;;;;;;5085571;28;20197;-81
2023/03/06 04:16:01;;;;;;;7.70;7.00;;;;;;;;;;5088255;28;20204;-85
2023/03/06 04:18:28;;;;;;;9.07;6.43;;;;;;;;;;5091594;28;20216;-82
2023/03/06 04:20:54;;;;;;;8.03;6.90;;;;;;;;;;5091122;28;20663;-81
2023/03/06 04:23:23;;;;;;;9.33;6.33;;;;;;;;;;5091155;28;20621;-80
2023/03/06 04:25:53;;;;;;;8.03;7.23;;;;;;;;;;5090958;28;20196;-81
2023/03/06 04:28:20;;;;;;;8.80;7.63;;;;;;;;;;5073310;28;20223;-81
2023/03/06 04:30:47;;;;;;;10.57;8.00;;;;;;;;;;5079413;28;20204;-84
2023/03/06 04:33:14;;;;;;;11.03;7.97;;;;;;;;;;5072076;28;20209;-81
2023/03/06 04:35:41;;;;;;;11.33;8.07;;;;;;;;;;5069376;28;20687;-81
2023/03/06 04:38:08;;;;;;;9.00;6.70;;;;;;;;;;5077643;28;20212;-80
2023/03/06 04:40:35;;;;;;;10.40;7.17;;;;;;;;;;5090782;28;20204;-81
2023/03/06 04:43:04;;;;;;;9.60;6.77;;;;;;;;;;5084719;28;20201;-81
2023/03/06 04:45:32;;;;;;;9.27;7.07;;;;;;;;;;5070542;28;20209;-81
2023/03/06 04:47:59;;;;;;;12.23;7.43;;;;;;;;;;5070592;28;20700;-81
2023/03/06 04:50:31;;;;;;;32.13;19.17;;;;;;;;;;5072135;28;20208;-81
2023/03/06 04:52:58;;;;;;;16.10;11.47;;;;;;;;;;5091080;28;20204;-82
2023/03/06 04:55:25;;;;;;;26.90;16.13;;;;;;;;;;5088611;28;20204;-81
2023/03/06 04:57:52;;;;;;;33.00;20.63;;;;;;;;;;5070998;28;20258;-81
2023/03/06 05:00:22;;;;;;;27.03;18.63;;;;;;;;;;5086630;28;20267;-81
2023/03/06 05:02:50;;;;;;;18.83;12.17;;;;;;;;;;5091244;28;20203;-80
2023/03/06 05:05:17;;;;;;;13.20;9.27;;;;;;;;;;5072885;28;20212;-79
2023/03/06 05:07:44;;;;;;;9.70;7.47;;;;;;;;;;5083628;28;20220;-81
2023/03/06 05:10:13;;;;;;;8.80;7.60;;;;;;;;;;5070861;28;20209;-81
2023/03/06 05:12:40;;;;;;;9.70;7.67;;;;;;;;;;5083914;28;20201;-81
2023/03/06 05:15:07;;;;;;;11.40;8.37;;;;;;;;;;5070878;28;20213;-81
2023/03/06 05:17:36;;;;;;;9.20;8.23;;;;;;;;;;5083810;28;20215;-81
2023/03/06 05:20:05;;;;;;;10.20;7.53;;;;;;;;;;5083677;28;20219;-81
2023/03/06 05:22:31;;;;;;;18.23;13.10;;;;;;;;;;5084355;28;20644;-81
2023/03/06 05:24:58;;;;;;;79.47;48.63;;;;;;;;;;5084012;28;20203;-81
2023/03/06 05:27:25;;;;;;;79.53;57.30;;;;;;;;;;5084035;28;20217;-81
2023/03/06 05:29:53;;;;;;;28.13;22.47;;;;;;;;;;5070694;28;20212;-81
2023/03/06 05:32:20;;;;;;;20.33;15.13;;;;;;;;;;5064252;28;20208;-81
2023/03/06 05:34:48;;;;;;;23.40;19.60;;;;;;;;;;5076948;28;20205;-82
2023/03/06 05:37:15;;;;;;;16.70;12.60;;;;;;;;;;5083221;28;20201;-81
2023/03/06 05:39:42;;;;;;;13.07;10.33;;;;;;;;;;5084202;28;20996;-81
2023/03/06 05:42:08;;;;;;;21.77;11.40;;;;;;;;;;5083070;28;20668;-80
2023/03/06 05:44:36;;;;;;;13.70;11.10;;;;;;;;;;5073448;28;20567;-81
2023/03/06 05:47:03;;;;;;;14.60;11.27;;;;;;;;;;5086870;28;20626;-81
2023/03/06 05:49:32;;;;;;;14.63;11.87;;;;;;;;;;5074337;28;20282;-81
2023/03/06 05:52:00;;;;;;;23.13;14.33;;;;;;;;;;5074089;28;20270;-86
2023/03/06 05:54:27;;;;;;;18.87;13.63;;;;;;;;;;5074162;28;20680;-81
2023/03/06 05:56:56;;;;;;;19.70;13.43;;;;;;;;;;5082341;28;20679;-81
2023/03/06 05:59:22;;;;;;;63.70;38.50;;;;;;;;;;5093755;28;20212;-81
2023/03/06 06:01:49;;;;;;;42.23;28.77;;;;;;;;;;5085836;28;20261;-81
2023/03/06 06:04:16;;;;;;;31.53;22.57;;;;;;;;;;5076179;28;20641;-81
2023/03/06 06:06:42;;;;;;;16.63;12.77;;;;;;;;;;5084967;28;20221;-81
2023/03/06 06:09:11;;;;;;;13.43;10.53;;;;;;;;;;5087138;28;20228;-81
2023/03/06 06:11:37;;;;;;;12.23;9.30;;;;;;;;;;5084355;28;20584;-82
2023/03/06 06:14:04;;;;;;;12.97;9.20;;;;;;;;;;5076712;28;20209;-82
2023/03/06 06:16:31;;;;;;;10.70;9.17;;;;;;;;;;5073753;28;20239;-82
2023/03/06 06:18:58;;;;;;;32.33;20.10;;;;;;;;;;5077819;28;20725;-82
2023/03/06 06:21:25;;;;;;;16.13;11.57;;;;;;;;;;5083203;28;20236;-82
2023/03/06 06:23:51;;;;;;;13.43;10.50;;;;;;;;;;5073509;28;20266;-82
2023/03/06 06:26:20;;;;;;;21.97;14.13;;;;;;;;;;5073551;28;20201;-82
2023/03/06 06:28:46;;;;;;;24.00;15.80;;;;;;;;;;5078545;28;20219;-82
2023/03/06 06:31:13;;;;;;;24.13;17.33;;;;;;;;;;5081725;28;20205;-83
2023/03/06 06:33:40;;;;;;;12.33;10.77;;;;;;;;;;5079042;28;20200;-82
2023/03/06 06:36:17;;;;;;;15.67;10.30;;;;;;;;;;5081622;28;20209;-82
2023/03/06 06:38:47;;;;;;;15.07;11.53;;;;;;;;;;5060645;28;20286;-82
2023/03/06 06:41:14;;;;;;;14.20;11.23;;;;;;;;;;5073604;28;20213;-83
2023/03/06 06:43:42;;;;;;;19.30;12.77;;;;;;;;;;5093565;28;20196;-82
2023/03/06 06:46:09;;;;;;;15.10;10.07;;;;;;;;;;5078874;28;20635;-82
2023/03/06 06:48:36;;;;;;;13.40;9.53;;;;;;;;;;5073112;28;20229;-80
2023/03/06 06:51:03;;;;;;;15.10;11.03;;;;;;;;;;5073409;28;20205;-81
2023/03/06 06:53:30;;;;;;;12.97;9.67;;;;;;;;;;5073491;28;20197;-81
2023/03/06 06:55:58;;;;;;;16.20;10.20;;;;;;;;;;5074850;28;20193;-80
2023/03/06 06:58:26;;;;;;;16.13;9.87;;;;;;;;;;5092959;28;20767;-80
2023/03/06 07:00:54;;;;;;;9.80;8.03;;;;;;;;;;5077599;28;20220;-80
2023/03/06 07:03:21;;;;;;;9.73;7.97;;;;;;;;;;5073141;28;20196;-80
2023/03/06 07:05:54;;;;;;;11.43;8.47;;;;;;;;;;5075455;28;20258;-80
2023/03/06 07:08:21;;;;;;;10.53;8.23;;;;;;;;;;5083017;28;20294;-81
2023/03/06 07:10:48;;;;;;;12.13;9.50;;;;;;;;;;5086442;28;20676;-81
2023/03/06 07:13:15;;;;;;;9.77;7.83;;;;;;;;;;5083303;28;20688;-81
2023/03/06 07:15:42;;;;;;;16.13;8.93;;;;;;;;;;5089033;28;20216;-81
2023/03/06 07:18:10;;;;;;;8.87;6.87;;;;;;;;;;5072899;28;20216;-81
2023/03/06 07:20:37;;;;;;;11.50;7.23;;;;;;;;;;5072663;28;20197;-81
2023/03/06 07:23:04;;;;;;;16.60;8.90;;;;;;;;;;5083178;28;20204;-81
2023/03/06 07:25:30;;;;;;;12.33;7.23;;;;;;;;;;5092492;28;20636;-81
2023/03/06 07:27:57;;;;;;;13.90;10.03;;;;;;;;;;5092688;28;20205;-81
2023/03/06 07:30:24;;;;;;;12.67;8.57;;;;;;;;;;5074834;28;20197;-81
2023/03/06 07:32:54;;;;;;;10.63;8.47;;;;;;;;;;5084026;28;20208;-81
2023/03/06 07:35:23;;;;;;;10.20;7.97;;;;;;;;;;5087103;28;20208;-82
2023/03/06 07:37:51;;;;;;;9.27;8.17;;;;;;;;;;5084445;28;20204;-81
2023/03/06 07:40:18;;;;;;;10.17;8.20;;;;;;;;;;5073099;28;20738;-81
2023/03/06 07:42:45;;;;;;;10.73;7.90;;;;;;;;;;5085003;28;20287;-82
2023/03/06 07:45:12;;;;;;;10.87;7.70;;;;;;;;;;5092002;28;20211;-82
2023/03/06 07:47:39;;;;;;;12.17;8.67;;;;;;;;;;5079547;28;20683;-82
2023/03/06 07:50:07;;;;;;;13.20;9.03;;;;;;;;;;5091915;28;20220;-81
2023/03/06 07:52:35;;;;;;;10.07;8.07;;;;;;;;;;5078800;28;20684;-82
2023/03/06 07:55:02;;;;;;;11.70;7.97;;;;;;;;;;5065780;28;20212;-82
2023/03/06 07:57:29;;;;;;;22.20;15.93;;;;;;;;;;5079006;28;20205;-83
2023/03/06 07:59:55;;;;;;;12.27;9.77;;;;;;;;;;5092164;28;20748;-82
2023/03/06 08:02:22;;;;;;;12.80;9.37;;;;;;;;;;5078017;28;20205;-82
2023/03/06 08:04:53;;;;;;;42.40;26.53;;;;;;;;;;5079884;28;20214;-81
2023/03/06 08:07:19;;;;;;;15.00;11.57;;;;;;;;;;5077354;28;20217;-82
2023/03/06 08:09:48;;;;;;;10.60;7.73;;;;;;;;;;5083519;28;20596;-81
2023/03/06 08:12:14;;;;;;;14.50;10.20;;;;;;;;;;5073756;28;20205;-81
2023/03/06 08:14:41;;;;;;;9.80;7.90;;;;;;;;;;5091733;28;20204;-82
2023/03/06 08:17:08;;;;;;;12.30;8.53;;;;;;;;;;5089663;28;20564;-82
2023/03/06 08:19:35;;;;;;;9.23;7.00;;;;;;;;;;5071658;28;20209;-82
2023/03/06 08:22:04;;;;;;;9.97;7.40;;;;;;;;;;5086831;28;20204;-82
2023/03/06 08:24:30;;;;;;;11.33;7.47;;;;;;;;;;5091695;28;20209;-82
2023/03/06 08:26:58;;;;;;;8.43;7.07;;;;;;;;;;5088878;28;20201;-82
2023/03/06 08:29:25;;;;;;;11.50;8.83;;;;;;;;;;5081781;28;20236;-82
2023/03/06 08:31:53;;;;;;;8.57;6.93;;;;;;;;;;5074102;28;20618;-82
2023/03/06 08:34:23;;;;;;;10.40;7.53;;;;;;;;;;5082613;28;20200;-82
2023/03/06 08:36:49;;;;;;;7.40;6.27;;;;;;;;;;5077825;28;20585;-82
2023/03/06 08:39:16;;;;;;;10.53;6.90;;;;;;;;;;5091225;28;20683;-82
2023/03/06 08:41:43;;;;;;;14.00;11.30;;;;;;;;;;5072402;28;20696;-82
2023/03/06 08:44:11;;;;;;;13.47;9.20;;;;;;;;;;5071248;28;20651;-82
2023/03/06 08:46:38;;;;;;;19.43;14.77;;;;;;;;;;5090270;28;20208;-82
2023/03/06 08:49:05;;;;;;;10.20;7.80;;;;;;;;;;5091521;28;20227;-83
2023/03/06 08:51:32;;;;;;;9.57;7.00;;;;;;;;;;5090851;28;20204;-87
2023/03/06 08:53:59;;;;;;;8.90;7.27;;;;;;;;;;5091205;28;20300;-84
2023/03/06 08:56:27;;;;;;;12.37;7.90;;;;;;;;;;5085074;28;20574;-82
2023/03/06 08:58:55;;;;;;;11.77;7.83;;;;;;;;;;5084590;28;20294;-82
2023/03/06 09:01:25;;;;;;;11.93;8.03;;;;;;;;;;5065000;28;20208;-82
2023/03/06 09:03:54;;;;;;;10.23;7.53;;;;;;;;;;5077907;28;20236;-82
2023/03/06 09:06:21;;;;;;;11.20;9.17;;;;;;;;;;5083161;28;20556;-82
2023/03/06 09:08:49;;;;;;;12.57;9.37;;;;;;;;;;5084622;28;20224;-81
2023/03/06 09:11:16;;;;;;;13.10;9.00;;;;;;;;;;5072147;28;20708;-82
2023/03/06 09:13:43;;;;;;;19.40;11.97;;;;;;;;;;5084717;28;20648;-82
2023/03/06 09:16:11;;;;;;;16.63;12.10;;;;;;;;;;5083038;28;20201;-82
2023/03/06 09:18:39;;;;;;;10.30;7.57;;;;;;;;;;5071719;28;20204;-82
2023/03/06 09:21:07;;;;;;;8.90;7.97;;;;;;;;;;5074973;28;20197;-82
2023/03/06 09:23:34;;;;;;;14.53;9.33;;;;;;;;;;5074610;28;20200;-83
2023/03/06 09:26:02;;;;;;;11.40;9.07;;;;;;;;;;5083898;28;20204;-81
2023/03/06 09:28:28;;;;;;;12.27;9.77;;;;;;;;;;5081463;28;20205;-82
2023/03/06 09:30:55;;;;;;;17.10;8.87;;;;;;;;;;5085713;28;20220;-82
2023/03/06 09:33:22;;;;;;;11.60;8.93;;;;;;;;;;5091158;28;20246;-82
2023/03/06 09:35:52;;;;;;;13.37;9.53;;;;;;;;;;5094628;28;20208;-82
2023/03/06 09:38:20;;;;;;;15.33;10.57;;;;;;;;;;5094954;28;20204;-82
2023/03/06 09:40:55;;;;;;;11.87;9.40;;;;;;;;;;5084621;28;20197;-82
2023/03/06 09:43:28;;;;;;;14.03;8.73;;;;;;;;;;5088066;28;20262;-82
2023/03/06 09:45:54;;;;;;;10.53;8.20;;;;;;;;;;5087619;28;20212;-81
2023/03/06 09:48:22;;;;;;;11.23;8.87;;;;;;;;;;5094817;28;20207;-82
2023/03/06 09:50:52;;;;;;;13.57;9.47;;;;;;;;;;5081113;28;20232;-84
2023/03/06 09:53:42;;;;;;;11.07;8.57;;;;;;;;;;5094720;28;20570;-82
2023/03/06 09:56:15;;;;;;;12.70;9.77;;;;;;;;;;5073702;28;20675;-82
2023/03/06 09:58:45;;;;;;;9.97;8.40;;;;;;;;;;5074655;28;20266;-82
2023/03/06 10:01:16;;;;;;;11.63;8.10;;;;;;;;;;5074443;28;20209;-82
2023/03/06 10:03:48;;;;;;;9.03;7.57;;;;;;;;;;5086906;28;20628;-82
2023/03/06 10:06:18;;;;;;;11.77;8.20;;;;;;;;;;5093968;28;20257;-82
2023/03/06 10:08:48;;;;;;;11.90;8.23;;;;;;;;;;5079558;28;20205;-82
2023/03/06 10:11:20;;;;;;;9.83;8.17;;;;;;;;;;5074923;28;20201;-82
2023/03/06 10:13:48;;;;;;;13.87;8.07;;;;;;;;;;5088411;28;20211;-81
2023/03/06 10:16:27;;;;;;;10.73;8.10;;;;;;;;;;5085631;28;20209;-81
2023/03/06 10:19:01;;;;;;;11.53;7.83;;;;;;;;;;5090991;28;20198;-81
2023/03/06 10:21:37;;;;;;;9.93;7.70;;;;;;;;;;5093787;28;20283;-81
2023/03/06 10:24:13;;;;;;;14.73;8.10;;;;;;;;;;5080498;28;20286;-81
2023/03/06 10:26:43;;;;;;;9.87;7.97;;;;;;;;;;5093515;28;20208;-82
2023/03/06 10:29:27;;;;;;;18.93;8.97;;;;;;;;;;5093443;28;20243;-82
2023/03/06 10:32:03;;;;;;;12.20;8.93;;;;;;;;;;5080639;28;20215;-81
2023/03/06 10:34:33;;;;;;;9.50;6.60;;;;;;;;;;5082158;28;20208;-82
2023/03/06 10:37:10;;;;;;;13.57;11.37;;;;;;;;;;5092244;28;20209;-81
2023/03/06 10:39:37;;;;;;;11.90;8.77;;;;;;;;;;5079916;28;20235;-81
2023/03/06 10:42:04;;;;;;;10.77;8.13;;;;;;;;;;5080864;28;20200;-81
2023/03/06 10:44:30;;;;;;;9.23;8.33;;;;;;;;;;5079521;28;20208;-81
2023/03/06 10:46:57;;;;;;;11.87;8.13;;;;;;;;;;5065636;28;20207;-82
2023/03/06 10:49:35;;;;;;;9.93;8.40;;;;;;;;;;5068721;28;20239;-81
2023/03/06 10:52:06;;;;;;;8.90;8.00;;;;;;;;;;5084596;28;20231;-81
2023/03/06 10:54:34;;;;;;;13.13;8.00;;;;;;;;;;5090097;28;20199;-81
2023/03/06 10:57:19;;;;;;;10.03;6.97;;;;;;;;;;5083179;28;20273;-82
2023/03/06 10:59:51;;;;;;;8.27;7.47;;;;;;;;;;5086603;28;20212;-82
2023/03/06 11:02:25;;;;;;;9.13;7.47;;;;;;;;;;5073163;28;20201;-82
2023/03/06 11:04:53;;;;;;;8.53;6.33;;;;;;;;;;5081530;28;20268;-81
2023/03/06 11:07:22;;;;;;;14.87;6.93;;;;;;;;;;5079351;28;20232;-81
2023/03/06 11:10:01;;;;;;;10.00;6.50;;;;;;;;;;5093006;28;20703;-81
2023/03/06 11:12:31;;;;;;;8.63;7.77;;;;;;;;;;5079012;28;20212;-81
2023/03/06 11:15:11;;;;;;;8.03;7.00;;;;;;;;;;5093443;28;20250;-81
2023/03/06 11:17:48;;;;;;;7.47;6.53;;;;;;;;;;5079124;28;20281;-81
2023/03/06 11:20:19;;;;;;;6.73;6.10;;;;;;;;;;5091265;28;20735;-82
2023/03/06 11:22:51;;;;;;;8.23;6.23;;;;;;;;;;5072833;28;20273;-81
2023/03/06 11:25:19;;;;;;;9.67;6.90;;;;;;;;;;5085844;28;20751;-80
2023/03/06 11:27:48;;;;;;;8.87;6.80;;;;;;;;;;5072720;28;20212;-81
2023/03/06 11:30:18;;;;;;;7.77;6.97;;;;;;;;;;5072567;28;20231;-81
2023/03/06 11:32:49;;;;;;;9.23;6.73;;;;;;;;;;5083441;28;20620;-81
2023/03/06 11:35:20;;;;;;;9.43;6.67;;;;;;;;;;5087713;28;20212;-82
2023/03/06 11:37:52;;;;;;;8.03;7.00;;;;;;;;;;5071961;28;20209;-81
2023/03/06 11:40:23;;;;;;;8.43;7.37;;;;;;;;;;5092147;28;20200;-81
2023/03/06 11:42:56;;;;;;;8.67;7.77;;;;;;;;;;5091905;28;20277;-82
2023/03/06 11:45:26;;;;;;;8.20;7.10;;;;;;;;;;5084674;28;20213;-81
2023/03/06 11:48:00;;;;;;;7.70;6.67;;;;;;;;;;5085821;28;20655;-81
2023/03/06 11:50:31;;;;;;;9.20;6.67;;;;;;;;;;5071851;28;20239;-81
2023/03/06 11:53:01;;;;;;;12.07;7.80;;;;;;;;;;5075466;28;20377;-81
2023/03/06 11:55:41;;;;;;;7.00;6.30;;;;;;;;;;5092564;28;20209;-81
2023/03/06 11:58:29;;;;;;;10.20;6.23;;;;;;;;;;5072709;28;20220;-80
2023/03/06 12:00:58;;;;;;;11.17;6.87;;;;;;;;;;5082418;28;20208;-82
2023/03/06 12:03:53;;;;;;;8.33;6.47;;;;;;;;;;5072094;28;20621;-81
2023/03/06 12:06:26;;;;;;;8.63;6.03;;;;;;;;;;5085217;28;20644;-81
2023/03/06 12:09:00;;;;;;;8.37;6.30;;;;;;;;;;5071518;28;20212;-81
2023/03/06 12:11:30;;;;;;;8.70;6.27;;;;;;;;;;5083411;28;20258;-81
2023/03/06 12:14:11;;;;;;;6.53;5.87;;;;;;;;;;5085339;28;20771;-80
2023/03/06 12:16:53;;;;;;;6.67;5.97;;;;;;;;;;5082777;28;20204;-81
2023/03/06 12:19:33;;;;;;;7.33;6.40;;;;;;;;;;5085277;28;20212;-81
2023/03/06 12:22:16;;;;;;;9.07;5.97;;;;;;;;;;5084706;28;20235;-81
2023/03/06 12:25:04;;;;;;;12.13;5.77;;;;;;;;;;5071722;28;20209;-82
2023/03/06 12:27:38;;;;;;;13.23;6.30;;;;;;;;;;5058545;28;20296;-81
2023/03/06 12:30:26;;;;;;;8.07;6.73;;;;;;;;;;5071343;28;20229;-82
2023/03/06 12:32:59;;;;;;;7.80;5.30;;;;;;;;;;5083042;28;20908;-80
2023/03/06 12:35:44;;;;;;;8.87;5.63;;;;;;;;;;5091357;28;20203;-81
2023/03/06 12:38:28;;;;;;;7.87;6.23;;;;;;;;;;5078316;28;20201;-81
2023/03/06 12:41:06;;;;;;;10.73;6.43;;;;;;;;;;5080760;28;20205;-81
2023/03/06 12:44:00;;;;;;;7.70;6.90;;;;;;;;;;5084721;28;20204;-81
2023/03/06 12:46:29;;;;;;;8.47;6.53;;;;;;;;;;5074249;28;20204;-81
2023/03/06 12:49:02;;;;;;;9.63;6.80;;;;;;;;;;5091394;28;20207;-81
2023/03/06 12:51:29;;;;;;;11.07;9.50;;;;;;;;;;5077489;28;20227;-81
2023/03/06 12:53:58;;;;;;;10.30;7.10;;;;;;;;;;5079527;28;20215;-81
2023/03/06 12:56:27;;;;;;;7.73;5.83;;;;;;;;;;5089638;28;20616;-81
2023/03/06 12:58:54;;;;;;;16.73;11.87;;;;;;;;;;5078387;28;20201;-81
2023/03/06 13:01:51;;;;;;;8.83;7.93;;;;;;;;;;5070815;28;20251;-81
2023/03/06 13:04:33;;;;;;;9.03;8.13;;;;;;;;;;5087071;28;20196;-81
2023/03/06 13:07:21;;;;;;;10.17;8.57;;;;;;;;;;5078261;28;20239;-80
2023/03/06 13:10:02;;;;;;;10.27;9.07;;;;;;;;;;5068574;28;20208;-81
2023/03/06 13:12:40;;;;;;;12.93;11.23;;;;;;;;;;5077198;28;20579;-80
2023/03/06 13:15:34;;;;;;;25.67;18.03;;;;;;;;;;5078754;28;20197;-81
2023/03/06 13:18:01;;;;;;;12.57;9.23;;;;;;;;;;5059846;28;20216;-81
2023/03/06 13:20:36;;;;;;;16.77;12.50;;;;;;;;;;5086342;28;20208;-81
2023/03/06 13:23:40;;;;;;;18.13;14.50;;;;;;;;;;5080201;28;20215;-81
2023/03/06 13:26:09;;;;;;;7.20;5.60;;;;;;;;;;5068629;28;20299;-80
2023/03/06 13:28:45;;;;;;;6.43;5.57;;;;;;;;;;5088452;28;20207;-81
2023/03/06 13:31:12;;;;;;;8.00;6.23;;;;;;;;;;5070466;28;20316;-80
2023/03/06 13:33:58;;;;;;;7.80;6.40;;;;;;;;;;5074759;28;20258;-81
2023/03/06 13:36:30;;;;;;;8.63;6.37;;;;;;;;;;5077213;28;20208;-81
2023/03/06 13:39:07;;;;;;;7.10;6.03;;;;;;;;;;5070832;28;20208;-80
2023/03/06 13:41:37;;;;;;;7.77;5.90;;;;;;;;;;5086389;28;20268;-80
2023/03/06 13:44:46;;;;;;;7.67;6.07;;;;;;;;;;5081027;28;20209;-80
2023/03/06 13:47:30;;;;;;;8.57;6.13;;;;;;;;;;5067702;28;20196;-80
2023/03/06 13:49:56;;;;;;;8.57;6.83;;;;;;;;;;5076542;28;20201;-81
2023/03/06 13:52:34;;;;;;;8.87;6.67;;;;;;;;;;5079105;28;20700;-80
2023/03/06 13:55:07;;;;;;;10.27;6.63;;;;;;;;;;5076284;28;20675;-80
2023/03/06 13:57:53;;;;;;;11.03;6.17;;;;;;;;;;5090292;28;20720;-80
2023/03/06 14:00:46;;;;;;;9.83;7.20;;;;;;;;;;5090081;28;20204;-81
2023/03/06 14:03:37;;;;;;;22.23;14.67;;;;;;;;;;5057535;28;20209;-80
2023/03/06 14:06:55;;;;;;;12.30;10.43;;;;;;;;;;5089996;28;20196;-80
2023/03/06 14:09:28;;;;;;;10.77;9.30;;;;;;;;;;5076286;28;20362;-80
2023/03/06 14:11:58;;;;;;;9.27;7.00;;;;;;;;;;5073954;28;20225;-80
2023/03/06 14:14:33;;;;;;;7.93;5.87;;;;;;;;;;5094213;28;20193;-80
2023/03/06 14:17:00;;;;;;;26.43;16.83;;;;;;;;;;5080784;28;20280;-80
2023/03/06 14:19:31;;;;;;;34.63;22.17;;;;;;;;;;5085645;28;20259;-81
2023/03/06 14:21:58;;;;;;;38.17;24.33;;;;;;;;;;5089045;28;20200;-80
2023/03/06 14:24:33;;;;;;;10.40;6.83;;;;;;;;;;5094108;28;20205;-80
2023/03/06 14:27:00;;;;;;;12.83;10.47;;;;;;;;;;5089890;28;20675;-80
2023/03/06 14:29:28;;;;;;;5.83;5.23;;;;;;;;;;5084227;28;20196;-80
2023/03/06 14:31:56;;;;;;;7.47;5.70;;;;;;;;;;5079217;28;20216;-80
2023/03/06 14:34:24;;;;;;;6.77;5.20;;;;;;;;;;5093408;28;20679;-81
2023/03/06 14:36:52;;;;;;;7.40;5.60;;;;;;;;;;5075522;28;20197;-80
2023/03/06 14:39:21;;;;;;;6.60;5.40;;;;;;;;;;5084877;28;20292;-81
2023/03/06 14:41:51;;;;;;;9.87;7.23;;;;;;;;;;5079532;28;20207;-81
2023/03/06 14:44:20;;;;;;;6.40;5.20;;;;;;;;;;5093829;28;20211;-80
2023/03/06 14:46:48;;;;;;;6.80;5.00;;;;;;;;;;5087406;28;20209;-80
2023/03/06 14:49:16;;;;;;;5.57;4.30;;;;;;;;;;5073247;28;20752;-80
2023/03/06 14:51:44;;;;;;;6.10;4.97;;;;;;;;;;5059662;28;20784;-80